Time;durP1;ratioP1;P1;durP2;ratioP2;P2;SDS_P1;SDS_P2;PMS_P1;PMS_P2;Temp;Humidity;BMP_temperature;BMP_pressure;BME280_temperature;BME280_humidity;BME280_pressure;Samples;Min_cycle;Max_cycle;Signal;HPM_P1;HPM_P2
2022/08/16 00:00:53;;;;;;;;;;;18.10;99.90;;;;;;5017375;28;19917;-71
2022/08/16 00:03:20;;;;;;;;;;;18.00;99.90;;;;;;5013296;28;19914;-71
2022/08/16 00:05:46;;;;;;;;;;;18.00;99.90;;;;;;5012461;28;20364;-73
2022/08/16 00:08:12;;;;;;;;;;;18.00;99.90;;;;;;5012818;28;19924;-70
2022/08/16 00:10:38;;;;;;;;;;;18.00;99.90;;;;;;5012362;28;19957;-71
2022/08/16 00:13:05;;;;;;;;;;;17.90;99.90;;;;;;5011371;28;20343;-71
2022/08/16 00:15:34;;;;;;;;;;;17.90;99.90;;;;;;5012041;28;19921;-71
2022/08/16 00:18:00;;;;;;;;;;;17.90;99.90;;;;;;5011459;28;20009;-71
2022/08/16 00:20:26;;;;;;;;;;;17.80;99.90;;;;;;5012257;28;19910;-70
2022/08/16 00:22:52;;;;;;;;;;;17.80;99.90;;;;;;5011190;28;19925;-71
2022/08/16 00:25:21;;;;;;;;;;;17.80;99.90;;;;;;5011838;28;19913;-71
2022/08/16 00:27:47;;;;;;;;;;;17.80;99.90;;;;;;5012117;28;19941;-71
2022/08/16 00:30:13;;;;;;;;;;;17.80;99.90;;;;;;5011896;28;19914;-71
2022/08/16 00:32:40;;;;;;;;;;;17.80;99.90;;;;;;5012082;28;19920;-71
2022/08/16 00:35:08;;;;;;;;;;;17.80;99.90;;;;;;5011102;28;20339;-71
2022/08/16 00:37:34;;;;;;;;;;;17.80;99.90;;;;;;5015539;28;19917;-70
2022/08/16 00:40:00;;;;;;;;;;;17.80;99.90;;;;;;5048172;28;19922;-71
2022/08/16 00:42:28;;;;;;;;;;;17.70;99.90;;;;;;5031825;28;19909;-71
2022/08/16 00:44:57;;;;;;;;;;;17.70;99.90;;;;;;5032958;28;19928;-71
2022/08/16 00:47:24;;;;;;;;;;;17.60;99.90;;;;;;5035262;28;19917;-70
2022/08/16 00:49:50;;;;;;;;;;;17.60;99.90;;;;;;5036514;28;19913;-71
2022/08/16 00:52:16;;;;;;;;;;;17.60;99.90;;;;;;5035102;28;19916;-71
2022/08/16 00:54:42;;;;;;;;;;;17.60;99.90;;;;;;5033859;28;20278;-71
2022/08/16 00:57:08;;;;;;;;;;;17.70;99.90;;;;;;5033320;28;19913;-71
2022/08/16 00:59:36;;;;;;;;;;;17.70;99.90;;;;;;5034114;28;19917;-71
2022/08/16 01:02:05;;;;;;;;;;;17.60;99.90;;;;;;5033409;28;19916;-71
2022/08/16 01:04:31;;;;;;;;;;;17.60;99.90;;;;;;5033824;28;19920;-70
2022/08/16 01:06:58;;;;;;;;;;;17.60;99.90;;;;;;5033415;28;20278;-72
2022/08/16 01:09:25;;;;;;;;;;;17.50;99.90;;;;;;5033357;28;19917;-73
2022/08/16 01:11:51;;;;;;;;;;;17.50;99.90;;;;;;5032942;28;20389;-73
2022/08/16 01:14:20;;;;;;;;;;;17.50;99.90;;;;;;5033420;28;20359;-72
2022/08/16 01:16:46;;;;;;;;;;;17.50;99.90;;;;;;5033153;28;20223;-70
2022/08/16 01:19:20;;;;;;;;;;;17.40;99.90;;;;;;5030858;28;20354;-70
2022/08/16 01:21:51;;;;;;;;;;;17.40;99.90;;;;;;5031936;28;19936;-70
2022/08/16 01:24:23;;;;;;;;;;;17.40;99.90;;;;;;5033449;28;19913;-71
2022/08/16 01:26:53;;;;;;;;;;;17.50;99.90;;;;;;5032933;28;19928;-71
2022/08/16 01:29:23;;;;;;;;;;;17.50;99.90;;;;;;5033376;28;20274;-71
2022/08/16 01:31:49;;;;;;;;;;;17.50;99.90;;;;;;5033416;28;19913;-71
2022/08/16 01:34:17;;;;;;;;;;;17.50;99.90;;;;;;5030721;28;19909;-71
2022/08/16 01:36:43;;;;;;;;;;;17.40;99.90;;;;;;5031599;28;19963;-71
2022/08/16 01:39:11;;;;;;;;;;;17.40;99.90;;;;;;5031043;28;19916;-71
2022/08/16 01:41:37;;;;;;;;;;;17.40;99.90;;;;;;5031678;28;19913;-70
2022/08/16 01:44:04;;;;;;;;;;;17.30;99.90;;;;;;5032418;28;19917;-71
2022/08/16 01:46:31;;;;;;;;;;;17.30;99.90;;;;;;5031236;28;20310;-71
2022/08/16 01:49:05;;;;;;;;;;;17.30;99.90;;;;;;5047215;28;19913;-71
2022/08/16 01:51:31;;;;;;;;;;;17.30;99.90;;;;;;5031221;28;20282;-71
2022/08/16 01:53:59;;;;;;;;;;;17.30;99.90;;;;;;5031712;28;20377;-71
2022/08/16 01:56:28;;;;;;;;;;;17.20;99.90;;;;;;5031134;28;19957;-71
2022/08/16 01:58:55;;;;;;;;;;;17.20;99.90;;;;;;5046775;28;19924;-71
2022/08/16 02:01:23;;;;;;;;;;;17.20;99.90;;;;;;5031135;28;19916;-71
2022/08/16 02:03:50;;;;;;;;;;;17.10;99.90;;;;;;5030987;28;20358;-71
2022/08/16 02:06:16;;;;;;;;;;;17.00;99.90;;;;;;5030185;28;19918;-71
2022/08/16 02:08:42;;;;;;;;;;;17.00;99.90;;;;;;5030895;28;19917;-71
2022/08/16 02:11:09;;;;;;;;;;;17.00;99.90;;;;;;5030119;28;19920;-71
2022/08/16 02:13:36;;;;;;;;;;;16.90;99.90;;;;;;5030414;28;20302;-71
2022/08/16 02:16:03;;;;;;;;;;;16.90;99.90;;;;;;5016524;28;19913;-71
2022/08/16 02:18:30;;;;;;;;;;;16.90;99.90;;;;;;5034638;28;19914;-71
2022/08/16 02:20:58;;;;;;;;;;;16.90;99.90;;;;;;5035957;28;19917;-71
2022/08/16 02:23:24;;;;;;;;;;;16.80;99.90;;;;;;5036227;28;20267;-71
2022/08/16 02:25:51;;;;;;;;;;;16.80;99.90;;;;;;5035777;28;20014;-71
2022/08/16 02:28:18;;;;;;;;;;;16.80;99.90;;;;;;5035684;28;19917;-71
2022/08/16 02:30:44;;;;;;;;;;;16.70;99.90;;;;;;5036245;28;19936;-71
2022/08/16 02:33:10;;;;;;;;;;;16.70;99.90;;;;;;5035470;28;19910;-71
2022/08/16 02:35:37;;;;;;;;;;;16.70;99.90;;;;;;5036066;28;19928;-71
2022/08/16 02:38:03;;;;;;;;;;;16.60;99.90;;;;;;5035277;28;19920;-71
2022/08/16 02:40:29;;;;;;;;;;;16.70;99.90;;;;;;5051186;28;19984;-71
2022/08/16 02:42:56;;;;;;;;;;;16.60;99.90;;;;;;5033593;28;19921;-72
2022/08/16 02:45:24;;;;;;;;;;;16.60;99.90;;;;;;5035741;28;19924;-71
2022/08/16 02:47:51;;;;;;;;;;;16.50;99.90;;;;;;5034533;28;19917;-71
2022/08/16 02:50:17;;;;;;;;;;;16.50;99.90;;;;;;5033451;28;19917;-71
2022/08/16 02:52:43;;;;;;;;;;;16.50;99.90;;;;;;5035718;28;19920;-71
2022/08/16 02:55:10;;;;;;;;;;;16.50;99.90;;;;;;5033445;28;19909;-71
2022/08/16 02:57:36;;;;;;;;;;;16.50;99.90;;;;;;5033955;28;20278;-70
2022/08/16 03:00:07;;;;;;;;;;;16.50;99.90;;;;;;5033304;28;19910;-71
2022/08/16 03:02:35;;;;;;;;;;;16.60;99.90;;;;;;5034238;28;19942;-71
2022/08/16 03:05:08;;;;;;;;;;;16.70;99.90;;;;;;5033483;28;19913;-71
2022/08/16 03:07:35;;;;;;;;;;;16.60;99.90;;;;;;5033833;28;19917;-71
2022/08/16 03:10:01;;;;;;;;;;;16.60;99.90;;;;;;5034455;28;19913;-71
2022/08/16 03:12:30;;;;;;;;;;;16.70;99.90;;;;;;5033580;28;19921;-71
2022/08/16 03:14:56;;;;;;;;;;;16.70;99.90;;;;;;5035097;28;19924;-71
2022/08/16 03:17:22;;;;;;;;;;;16.70;99.90;;;;;;5017185;28;19913;-71
2022/08/16 03:19:52;;;;;;;;;;;16.70;99.90;;;;;;5034057;28;20004;-71
2022/08/16 03:22:20;;;;;;;;;;;16.60;99.90;;;;;;5016549;28;19913;-71
2022/08/16 03:24:46;;;;;;;;;;;16.60;99.90;;;;;;5033523;28;20273;-72
2022/08/16 03:27:12;;;;;;;;;;;16.60;99.90;;;;;;5031433;28;19917;-71
2022/08/16 03:29:38;;;;;;;;;;;16.60;99.90;;;;;;5035320;28;19920;-71
2022/08/16 03:32:04;;;;;;;;;;;16.50;99.90;;;;;;5034512;28;19913;-71
2022/08/16 03:34:34;;;;;;;;;;;16.50;99.90;;;;;;5035261;28;19920;-71
2022/08/16 03:37:00;;;;;;;;;;;16.40;99.90;;;;;;5034225;28;19920;-71
2022/08/16 03:39:26;;;;;;;;;;;16.40;99.90;;;;;;5034073;28;19913;-71
2022/08/16 03:41:53;;;;;;;;;;;16.40;99.90;;;;;;5034586;28;19917;-71
2022/08/16 03:44:20;;;;;;;;;;;16.30;99.90;;;;;;5033298;28;19917;-71
2022/08/16 03:46:47;;;;;;;;;;;16.30;99.90;;;;;;5049476;28;19913;-72
2022/08/16 03:49:14;;;;;;;;;;;16.40;99.90;;;;;;5032722;28;20290;-71
2022/08/16 03:51:44;;;;;;;;;;;16.40;99.90;;;;;;5032852;28;19928;-71
2022/08/16 03:54:17;;;;;;;;;;;16.30;99.90;;;;;;5032517;28;19920;-71
2022/08/16 03:56:44;;;;;;;;;;;16.30;99.90;;;;;;5032985;28;19913;-71
2022/08/16 03:59:12;;;;;;;;;;;16.20;99.90;;;;;;5032327;28;19913;-71
2022/08/16 04:01:46;;;;;;;;;;;16.10;99.90;;;;;;5033988;28;19913;-71
2022/08/16 04:04:13;;;;;;;;;;;16.10;99.90;;;;;;5032098;28;20398;-71
2022/08/16 04:06:39;;;;;;;;;;;16.10;99.90;;;;;;5034609;28;20325;-71
2022/08/16 04:09:05;;;;;;;;;;;16.00;99.90;;;;;;5034240;28;19921;-71
2022/08/16 04:11:32;;;;;;;;;;;16.10;99.90;;;;;;5033383;28;20282;-71
2022/08/16 04:13:58;;;;;;;;;;;16.00;99.90;;;;;;5050306;28;19921;-72
2022/08/16 04:16:27;;;;;;;;;;;15.90;99.90;;;;;;5033374;28;19913;-71
2022/08/16 04:18:55;;;;;;;;;;;15.90;99.90;;;;;;5033154;28;20250;-71
2022/08/16 04:21:21;;;;;;;;;;;15.80;99.90;;;;;;5033794;28;19988;-72
2022/08/16 04:23:47;;;;;;;;;;;15.80;99.90;;;;;;5034502;28;19913;-72
2022/08/16 04:26:13;;;;;;;;;;;15.90;99.90;;;;;;5032330;28;19917;-72
2022/08/16 04:28:39;;;;;;;;;;;16.00;99.90;;;;;;5039111;28;19913;-71
2022/08/16 04:31:08;;;;;;;;;;;16.20;99.90;;;;;;5049637;28;19913;-72
2022/08/16 04:33:36;;;;;;;;;;;16.30;99.90;;;;;;5066680;28;19913;-71
2022/08/16 04:36:03;;;;;;;;;;;16.40;99.90;;;;;;5039449;28;19920;-74
2022/08/16 04:38:29;;;;;;;;;;;16.50;99.90;;;;;;5033920;28;19913;-72
2022/08/16 04:40:55;;;;;;;;;;;16.60;99.90;;;;;;5034768;28;19955;-72
2022/08/16 04:43:22;;;;;;;;;;;16.80;99.90;;;;;;5032244;28;19917;-72
2022/08/16 04:45:48;;;;;;;;;;;16.90;99.90;;;;;;5034343;28;20346;-72
2022/08/16 04:48:18;;;;;;;;;;;17.00;99.90;;;;;;5048250;28;19940;-71
2022/08/16 04:50:51;;;;;;;;;;;17.10;99.90;;;;;;5032216;28;19913;-72
2022/08/16 04:53:20;;;;;;;;;;;17.20;99.90;;;;;;5031499;28;19920;-72
2022/08/16 04:55:49;;;;;;;;;;;17.30;99.90;;;;;;5048618;28;19920;-72
2022/08/16 04:58:15;;;;;;;;;;;17.40;99.90;;;;;;5033268;28;19917;-71
2022/08/16 05:00:41;;;;;;;;;;;17.40;99.90;;;;;;5032685;28;20286;-72
2022/08/16 05:03:11;;;;;;;;;;;17.50;99.90;;;;;;5031934;28;20259;-72
2022/08/16 05:05:46;;;;;;;;;;;17.50;99.90;;;;;;5034224;28;19921;-71
2022/08/16 05:08:15;;;;;;;;;;;17.70;99.90;;;;;;5031270;28;19944;-72
2022/08/16 05:10:44;;;;;;;;;;;17.70;99.90;;;;;;5031954;28;19921;-72
2022/08/16 05:13:10;;;;;;;;;;;17.90;99.90;;;;;;5032718;28;20374;-72
2022/08/16 05:15:37;;;;;;;;;;;17.90;99.90;;;;;;5032080;28;20378;-72
2022/08/16 05:18:03;;;;;;;;;;;18.00;99.90;;;;;;5048486;28;19920;-72
2022/08/16 05:20:33;;;;;;;;;;;18.10;99.90;;;;;;5031910;28;19932;-72
2022/08/16 05:23:00;;;;;;;;;;;18.20;99.90;;;;;;5048682;28;19913;-71
2022/08/16 05:25:26;;;;;;;;;;;18.20;99.90;;;;;;5031708;28;19917;-72
2022/08/16 05:27:54;;;;;;;;;;;18.50;99.90;;;;;;5048625;28;19921;-72
2022/08/16 05:30:22;;;;;;;;;;;18.90;99.90;;;;;;5015883;28;19920;-72
2022/08/16 05:32:48;;;;;;;;;;;18.90;99.90;;;;;;5030983;28;19963;-71
2022/08/16 05:35:16;;;;;;;;;;;18.80;99.90;;;;;;5030795;28;19924;-72
2022/08/16 05:37:56;;;;;;;;;;;18.80;99.90;;;;;;5031733;28;19913;-71
2022/08/16 05:40:23;;;;;;;;;;;18.80;99.90;;;;;;5031977;28;19913;-72
2022/08/16 05:42:49;;;;;;;;;;;18.80;99.90;;;;;;5031503;28;19909;-72
2022/08/16 05:45:18;;;;;;;;;;;18.70;99.90;;;;;;5047349;28;19918;-72
2022/08/16 05:47:44;;;;;;;;;;;18.90;99.90;;;;;;5032768;28;19914;-72
2022/08/16 05:50:10;;;;;;;;;;;19.50;99.90;;;;;;5031322;28;19913;-72
2022/08/16 05:52:36;;;;;;;;;;;20.50;99.90;;;;;;5031313;28;19913;-72
2022/08/16 05:55:04;;;;;;;;;;;21.70;99.90;;;;;;5031166;28;19910;-72
2022/08/16 05:57:33;;;;;;;;;;;22.50;99.90;;;;;;5031039;28;19913;-72
2022/08/16 06:00:00;;;;;;;;;;;23.20;99.90;;;;;;5031239;28;19909;-72
2022/08/16 06:02:30;;;;;;;;;;;23.80;96.70;;;;;;5031860;28;20117;-72
2022/08/16 06:04:58;;;;;;;;;;;24.10;95.00;;;;;;5030750;28;19913;-72
2022/08/16 06:07:24;;;;;;;;;;;24.10;93.40;;;;;;5030467;28;20382;-72
2022/08/16 06:09:57;;;;;;;;;;;24.20;92.90;;;;;;5031081;28;19918;-71
2022/08/16 06:12:25;;;;;;;;;;;24.00;92.80;;;;;;5030522;28;19932;-72
2022/08/16 06:14:51;;;;;;;;;;;22.60;95.50;;;;;;5032636;28;19921;-72
2022/08/16 06:17:19;;;;;;;;;;;21.80;98.80;;;;;;5030527;28;19913;-72
2022/08/16 06:19:46;;;;;;;;;;;21.40;99.90;;;;;;5030953;28;19917;-72
2022/08/16 06:22:14;;;;;;;;;;;21.10;99.90;;;;;;5030066;28;19913;-72
2022/08/16 06:24:40;;;;;;;;;;;20.90;99.90;;;;;;5030784;28;19909;-72
2022/08/16 06:27:06;;;;;;;;;;;21.50;99.90;;;;;;5032496;28;19947;-72
2022/08/16 06:29:33;;;;;;;;;;;22.40;99.90;;;;;;5030412;28;19913;-72
2022/08/16 06:32:00;;;;;;;;;;;23.40;97.10;;;;;;5030411;28;19921;-72
2022/08/16 06:34:27;;;;;;;;;;;24.10;94.10;;;;;;5031234;28;19913;-73
2022/08/16 06:36:54;;;;;;;;;;;24.80;91.40;;;;;;5030452;28;19917;-72
2022/08/16 06:39:22;;;;;;;;;;;25.20;90.20;;;;;;5029987;28;19921;-73
2022/08/16 06:42:02;;;;;;;;;;;25.80;87.20;;;;;;5046858;28;19909;-73
2022/08/16 06:44:42;;;;;;;;;;;25.30;85.80;;;;;;5031993;28;19917;-72
2022/08/16 06:47:28;;;;;;;;;;;25.10;87.80;;;;;;5016200;28;20286;-71
2022/08/16 06:49:54;;;;;;;;;;;25.60;86.10;;;;;;5030106;28;19925;-70
2022/08/16 06:52:30;;;;;;;;;;;25.50;84.00;;;;;;5029953;28;19916;-71
2022/08/16 06:54:56;;;;;;;;;;;25.80;85.20;;;;;;5030802;28;19913;-70
2022/08/16 06:57:22;;;;;;;;;;;26.80;79.70;;;;;;5031541;28;19909;-71
2022/08/16 06:59:49;;;;;;;;;;;27.50;77.30;;;;;;5031924;28;20299;-70
2022/08/16 07:02:16;;;;;;;;;;;28.10;71.70;;;;;;5032108;28;19920;-71
2022/08/16 07:04:42;;;;;;;;;;;27.70;70.20;;;;;;5035517;28;19917;-70
2022/08/16 07:07:14;;;;;;;;;;;26.90;75.50;;;;;;5033184;28;19924;-71
2022/08/16 07:09:40;;;;;;;;;;;25.60;76.30;;;;;;5034226;28;19917;-71
2022/08/16 07:12:07;;;;;;;;;;;24.90;81.80;;;;;;5033121;28;19932;-72
2022/08/16 07:14:37;;;;;;;;;;;24.30;87.60;;;;;;5033788;28;19917;-72
2022/08/16 07:17:06;;;;;;;;;;;23.80;90.70;;;;;;5033702;28;19920;-72
2022/08/16 07:19:32;;;;;;;;;;;23.30;92.50;;;;;;5034690;28;19962;-72
2022/08/16 07:22:01;;;;;;;;;;;23.10;93.80;;;;;;5033653;28;19924;-71
2022/08/16 07:24:29;;;;;;;;;;;23.10;94.60;;;;;;5033479;28;19913;-72
2022/08/16 07:26:57;;;;;;;;;;;23.00;94.90;;;;;;5033732;28;19988;-71
2022/08/16 07:29:24;;;;;;;;;;;22.80;95.40;;;;;;5032762;28;19918;-72
2022/08/16 07:31:50;;;;;;;;;;;22.50;96.60;;;;;;5035242;28;19920;-71
2022/08/16 07:34:17;;;;;;;;;;;22.50;96.80;;;;;;5033344;28;19921;-72
2022/08/16 07:36:44;;;;;;;;;;;22.50;97.60;;;;;;5033343;28;19920;-72
2022/08/16 07:39:11;;;;;;;;;;;22.80;96.90;;;;;;5033454;28;19913;-72
2022/08/16 07:41:38;;;;;;;;;;;23.70;95.10;;;;;;5035164;28;19914;-72
2022/08/16 07:44:07;;;;;;;;;;;24.60;92.50;;;;;;5033349;28;19924;-72
2022/08/16 07:46:33;;;;;;;;;;;25.40;90.10;;;;;;5032722;28;20507;-72
2022/08/16 07:49:05;;;;;;;;;;;25.90;84.90;;;;;;5033290;28;19936;-72
2022/08/16 07:51:35;;;;;;;;;;;26.50;82.10;;;;;;5032686;28;20307;-72
2022/08/16 07:54:04;;;;;;;;;;;26.70;80.50;;;;;;5033106;28;20390;-72
2022/08/16 07:56:30;;;;;;;;;;;26.60;78.90;;;;;;5016208;28;20286;-72
2022/08/16 07:58:56;;;;;;;;;;;26.20;80.60;;;;;;5034422;28;19917;-72
2022/08/16 08:01:23;;;;;;;;;;;26.50;77.40;;;;;;5032452;28;19913;-72
2022/08/16 08:03:54;;;;;;;;;;;27.30;76.00;;;;;;5032685;28;19920;-72
2022/08/16 08:06:27;;;;;;;;;;;27.00;75.50;;;;;;5032177;28;19921;-72
2022/08/16 08:08:56;;;;;;;;;;;27.10;74.00;;;;;;5032837;28;19921;-72
2022/08/16 08:11:23;;;;;;;;;;;27.60;73.00;;;;;;5033432;28;19936;-72
2022/08/16 08:13:50;;;;;;;;;;;27.80;72.30;;;;;;5032322;28;19917;-72
2022/08/16 08:16:20;;;;;;;;;;;27.40;74.00;;;;;;5032274;28;19920;-73
2022/08/16 08:18:47;;;;;;;;;;;28.00;71.70;;;;;;5032938;28;19924;-72
2022/08/16 08:21:14;;;;;;;;;;;28.50;69.10;;;;;;5032777;28;19913;-72
2022/08/16 08:23:41;;;;;;;;;;;29.00;69.30;;;;;;5031706;28;20004;-72
2022/08/16 08:26:08;;;;;;;;;;;28.70;68.10;;;;;;5033864;28;19917;-72
2022/08/16 08:28:34;;;;;;;;;;;28.00;67.90;;;;;;5032067;28;19924;-72
2022/08/16 08:31:04;;;;;;;;;;;27.00;71.30;;;;;;5032721;28;19920;-72
2022/08/16 08:33:34;;;;;;;;;;;27.60;71.40;;;;;;5031771;28;19913;-72
2022/08/16 08:36:03;;;;;;;;;;;27.80;71.10;;;;;;5032155;28;20334;-72
2022/08/16 08:38:30;;;;;;;;;;;27.90;69.90;;;;;;5031734;28;19920;-73
2022/08/16 08:40:56;;;;;;;;;;;28.60;68.30;;;;;;5032232;28;19916;-72
2022/08/16 08:43:22;;;;;;;;;;;28.10;69.70;;;;;;5031407;28;19917;-72
2022/08/16 08:45:55;;;;;;;;;;;28.60;67.60;;;;;;5032295;28;19932;-72
2022/08/16 08:48:23;;;;;;;;;;;27.60;68.80;;;;;;5048041;28;19924;-72
2022/08/16 08:50:49;;;;;;;;;;;28.00;68.90;;;;;;5034810;28;19946;-72
2022/08/16 08:53:15;;;;;;;;;;;29.30;66.50;;;;;;5033477;28;19917;-72
2022/08/16 08:55:42;;;;;;;;;;;29.60;64.70;;;;;;5031306;28;19920;-72
2022/08/16 08:58:08;;;;;;;;;;;29.40;63.90;;;;;;5033689;28;19913;-72
2022/08/16 09:00:45;;;;;;;;;;;30.10;63.80;;;;;;5032245;28;20381;-72
2022/08/16 09:03:13;;;;;;;;;;;31.10;60.60;;;;;;5031781;28;19914;-72
2022/08/16 09:05:40;;;;;;;;;;;30.50;60.40;;;;;;5039319;28;19920;-73
2022/08/16 09:08:09;;;;;;;;;;;30.00;59.50;;;;;;5045331;28;20271;-73
2022/08/16 09:11:01;;;;;;;;;;;28.70;62.10;;;;;;5035392;28;19936;-72
2022/08/16 09:13:27;;;;;;;;;;;28.20;65.70;;;;;;5031454;28;19944;-72
2022/08/16 09:15:54;;;;;;;;;;;27.90;65.40;;;;;;5048610;28;19913;-72
2022/08/16 09:18:22;;;;;;;;;;;29.00;64.60;;;;;;5047778;28;19914;-72
2022/08/16 09:20:51;;;;;;;;;;;29.90;62.00;;;;;;5033443;28;19957;-71
2022/08/16 09:23:18;;;;;;;;;;;30.30;59.80;;;;;;5031880;28;20350;-72
2022/08/16 09:25:44;;;;;;;;;;;30.50;60.70;;;;;;5031980;28;20362;-72
2022/08/16 09:28:15;;;;;;;;;;;31.20;59.20;;;;;;5031423;28;19917;-72
2022/08/16 09:30:46;;;;;;;;;;;30.50;59.10;;;;;;5048455;28;19917;-72
2022/08/16 09:33:17;;;;;;;;;;;29.10;62.60;;;;;;5032634;28;19935;-72
2022/08/16 09:35:44;;;;;;;;;;;29.20;60.80;;;;;;5032503;28;19913;-72
2022/08/16 09:38:12;;;;;;;;;;;30.00;60.10;;;;;;5033046;28;20281;-72
2022/08/16 09:40:40;;;;;;;;;;;30.40;58.00;;;;;;5031920;28;19913;-72
2022/08/16 09:43:07;;;;;;;;;;;30.30;58.90;;;;;;5032706;28;19921;-72
2022/08/16 09:45:37;;;;;;;;;;;31.00;58.40;;;;;;5032042;28;19913;-72
2022/08/16 09:48:05;;;;;;;;;;;31.30;56.90;;;;;;5032796;28;19924;-72
2022/08/16 09:50:31;;;;;;;;;;;31.50;57.80;;;;;;5031465;28;19917;-72
2022/08/16 09:52:58;;;;;;;;;;;31.20;55.30;;;;;;5032271;28;19913;-72
2022/08/16 09:55:24;;;;;;;;;;;31.20;57.30;;;;;;5031844;28;19913;-72
2022/08/16 09:57:50;;;;;;;;;;;30.30;56.40;;;;;;5032590;28;19913;-72
2022/08/16 10:00:16;;;;;;;;;;;29.20;58.40;;;;;;5032392;28;19925;-72
2022/08/16 10:02:43;;;;;;;;;;;28.20;60.20;;;;;;5031922;28;19917;-72
2022/08/16 10:05:10;;;;;;;;;;;26.90;64.70;;;;;;5032909;28;19914;-72
2022/08/16 10:07:36;;;;;;;;;;;26.60;64.30;;;;;;5032226;28;19997;-72
2022/08/16 10:10:03;;;;;;;;;;;26.30;67.10;;;;;;5032538;28;20358;-72
2022/08/16 10:15:14;;;;;;;;;;;26.20;69.40;;;;;;5032877;28;19924;-71
2022/08/16 10:17:41;;;;;;;;;;;25.90;70.80;;;;;;5032367;28;19920;-71
2022/08/16 10:20:10;;;;;;;;;;;26.40;70.10;;;;;;5032567;28;19920;-71
2022/08/16 10:22:39;;;;;;;;;;;26.90;67.60;;;;;;5032169;28;19936;-71
2022/08/16 10:25:05;;;;;;;;;;;26.60;67.40;;;;;;5032282;28;19917;-72
2022/08/16 10:27:32;;;;;;;;;;;26.20;69.10;;;;;;5031726;28;19917;-71
2022/08/16 10:29:58;;;;;;;;;;;25.90;68.70;;;;;;5032349;28;19924;-71
2022/08/16 10:32:24;;;;;;;;;;;26.30;68.90;;;;;;5031408;28;19909;-72
2022/08/16 10:34:50;;;;;;;;;;;26.30;69.30;;;;;;5031866;28;19913;-72
2022/08/16 10:37:16;;;;;;;;;;;26.70;67.20;;;;;;5035103;28;19917;-71
2022/08/16 10:39:42;;;;;;;;;;;26.70;66.90;;;;;;5035263;28;19909;-71
2022/08/16 10:42:10;;;;;;;;;;;27.00;68.90;;;;;;5036238;28;19913;-72
2022/08/16 10:44:36;;;;;;;;;;;27.00;65.90;;;;;;5035338;28;20243;-72
2022/08/16 10:47:02;;;;;;;;;;;26.70;68.10;;;;;;5035996;28;20385;-72
2022/08/16 10:49:28;;;;;;;;;;;27.50;66.30;;;;;;5035280;28;20334;-72
2022/08/16 10:51:54;;;;;;;;;;;27.90;63.60;;;;;;5036204;28;19913;-72
2022/08/16 10:54:21;;;;;;;;;;;28.00;64.30;;;;;;5035804;28;20389;-72
2022/08/16 10:56:47;;;;;;;;;;;27.80;63.20;;;;;;5035389;28;19909;-72
2022/08/16 10:59:14;;;;;;;;;;;28.00;63.10;;;;;;5035668;28;20263;-72
2022/08/16 11:01:40;;;;;;;;;;;27.20;64.30;;;;;;5034867;28;19910;-72
2022/08/16 11:04:06;;;;;;;;;;;27.70;65.80;;;;;;5035584;28;20004;-71
2022/08/16 11:06:33;;;;;;;;;;;28.30;64.70;;;;;;5034976;28;20267;-72
2022/08/16 11:08:59;;;;;;;;;;;28.60;62.60;;;;;;5034951;28;20358;-72
2022/08/16 11:11:25;;;;;;;;;;;28.50;61.80;;;;;;5035846;28;19913;-72
2022/08/16 11:13:51;;;;;;;;;;;28.50;63.60;;;;;;5034324;28;19917;-72
2022/08/16 11:16:18;;;;;;;;;;;28.50;61.30;;;;;;5035306;28;19919;-72
2022/08/16 11:18:44;;;;;;;;;;;27.40;62.50;;;;;;5034825;28;20366;-72
2022/08/16 11:21:11;;;;;;;;;;;26.80;63.10;;;;;;5035745;28;19928;-72
2022/08/16 11:23:37;;;;;;;;;;;26.60;65.40;;;;;;5034997;28;20381;-72
2022/08/16 11:26:03;;;;;;;;;;;26.60;64.50;;;;;;5035151;28;19913;-72
2022/08/16 11:28:30;;;;;;;;;;;26.70;64.70;;;;;;5034282;28;19913;-72
2022/08/16 11:30:58;;;;;;;;;;;27.30;62.70;;;;;;5035422;28;19921;-72
2022/08/16 11:33:24;;;;;;;;;;;27.90;62.30;;;;;;5035277;28;20246;-72
2022/08/16 11:35:50;;;;;;;;;;;28.40;61.20;;;;;;5033104;28;19928;-72
2022/08/16 11:38:18;;;;;;;;;;;29.00;59.00;;;;;;5034896;28;19917;-72
2022/08/16 11:40:47;;;;;;;;;;;29.40;58.40;;;;;;5034640;28;19909;-72
2022/08/16 11:43:13;;;;;;;;;;;29.50;56.90;;;;;;5033564;28;19917;-72
2022/08/16 11:45:40;;;;;;;;;;;29.00;57.60;;;;;;5034246;28;19920;-72
2022/08/16 11:48:06;;;;;;;;;;;28.50;57.80;;;;;;5034014;28;19928;-71
2022/08/16 11:50:33;;;;;;;;;;;28.60;58.50;;;;;;5034317;28;19924;-72
2022/08/16 11:53:03;;;;;;;;;;;28.80;58.90;;;;;;5035019;28;19916;-72
2022/08/16 11:55:29;;;;;;;;;;;28.30;58.60;;;;;;5034060;28;19914;-75
2022/08/16 11:57:55;;;;;;;;;;;28.50;58.40;;;;;;5034830;28;19917;-72
2022/08/16 12:00:21;;;;;;;;;;;28.80;59.40;;;;;;5034620;28;19920;-72
2022/08/16 12:02:47;;;;;;;;;;;29.30;57.40;;;;;;5033782;28;19916;-72
2022/08/16 12:05:14;;;;;;;;;;;29.30;56.90;;;;;;5034258;28;19914;-72
2022/08/16 12:07:41;;;;;;;;;;;29.80;58.00;;;;;;5033611;28;19924;-72
2022/08/16 12:10:09;;;;;;;;;;;29.70;56.00;;;;;;5033810;28;19917;-72
2022/08/16 12:12:36;;;;;;;;;;;29.70;56.20;;;;;;5033906;28;20373;-72
2022/08/16 12:15:03;;;;;;;;;;;29.60;56.60;;;;;;5033355;28;19924;-72
2022/08/16 12:17:30;;;;;;;;;;;29.80;56.20;;;;;;5034624;28;19913;-72
2022/08/16 12:19:56;;;;;;;;;;;29.50;55.40;;;;;;5034024;28;19924;-72
2022/08/16 12:22:23;;;;;;;;;;;29.10;57.30;;;;;;5034594;28;20278;-72
2022/08/16 12:24:49;;;;;;;;;;;29.60;57.30;;;;;;5032724;28;19913;-72
2022/08/16 12:27:15;;;;;;;;;;;29.90;55.30;;;;;;5034355;28;19933;-72
2022/08/16 12:29:41;;;;;;;;;;;29.50;55.40;;;;;;5033863;28;19913;-71
2022/08/16 12:32:08;;;;;;;;;;;29.20;56.70;;;;;;5033985;28;19913;-72
2022/08/16 12:34:35;;;;;;;;;;;29.30;54.80;;;;;;5033302;28;19913;-72
2022/08/16 12:37:03;;;;;;;;;;;28.90;55.40;;;;;;5034118;28;19972;-72
2022/08/16 12:39:29;;;;;;;;;;;29.30;55.50;;;;;;5033891;28;20267;-72
2022/08/16 12:41:55;;;;;;;;;;;29.80;54.70;;;;;;5033052;28;20286;-72
2022/08/16 12:44:21;;;;;;;;;;;29.20;53.20;;;;;;5033537;28;19917;-72
2022/08/16 12:48:56;;;;;;;;;;;28.60;55.30;;;;;;5032988;28;20278;-72
2022/08/16 12:49:34;;;;;;;;;;;28.90;55.70;;;;;;5033041;28;19929;-72
2022/08/16 12:52:00;;;;;;;;;;;28.80;55.80;;;;;;5033585;28;20367;-71
2022/08/16 12:54:26;;;;;;;;;;;29.10;55.10;;;;;;5033327;28;19924;-72
2022/08/16 12:56:52;;;;;;;;;;;29.50;56.80;;;;;;5032722;28;20271;-72
2022/08/16 12:59:19;;;;;;;;;;;29.60;54.20;;;;;;5033042;28;20255;-72
2022/08/16 13:01:46;;;;;;;;;;;29.70;55.00;;;;;;5032846;28;19936;-72
2022/08/16 13:04:13;;;;;;;;;;;30.10;53.30;;;;;;5033611;28;19913;-72
2022/08/16 13:06:40;;;;;;;;;;;30.30;53.30;;;;;;5032394;28;19929;-72
2022/08/16 13:09:24;;;;;;;;;;;29.60;52.60;;;;;;5033232;28;19924;-72
2022/08/16 13:11:58;;;;;;;;;;;29.00;53.80;;;;;;5032790;28;19921;-72
2022/08/16 13:14:26;;;;;;;;;;;29.10;54.70;;;;;;5033326;28;19924;-72
2022/08/16 13:16:52;;;;;;;;;;;29.60;54.40;;;;;;5032258;28;19913;-72
2022/08/16 13:19:18;;;;;;;;;;;29.80;52.90;;;;;;5033260;28;19913;-72
2022/08/16 13:21:44;;;;;;;;;;;29.60;53.50;;;;;;5031600;28;19992;-72
2022/08/16 13:24:10;;;;;;;;;;;29.90;53.30;;;;;;5032909;28;19920;-72
2022/08/16 13:26:36;;;;;;;;;;;29.50;53.70;;;;;;5032532;28;20370;-72
2022/08/16 13:29:02;;;;;;;;;;;29.60;53.90;;;;;;5033292;28;19920;-72
2022/08/16 13:31:28;;;;;;;;;;;30.00;52.70;;;;;;5032848;28;19913;-72
2022/08/16 13:33:54;;;;;;;;;;;29.80;52.10;;;;;;5031876;28;20552;-72
2022/08/16 13:36:20;;;;;;;;;;;29.70;52.90;;;;;;5032947;28;19916;-72
2022/08/16 13:38:46;;;;;;;;;;;29.60;52.20;;;;;;5041116;28;19917;-71
2022/08/16 13:41:12;;;;;;;;;;;29.50;52.70;;;;;;5047306;28;19919;-73
2022/08/16 13:43:39;;;;;;;;;;;29.90;51.60;;;;;;5040837;28;19917;-72
2022/08/16 13:46:05;;;;;;;;;;;29.90;51.00;;;;;;5033991;28;19913;-72
2022/08/16 13:48:32;;;;;;;;;;;29.90;52.70;;;;;;5033468;28;19935;-72
2022/08/16 13:50:58;;;;;;;;;;;30.00;51.80;;;;;;5032608;28;19917;-72
2022/08/16 13:53:24;;;;;;;;;;;29.90;52.50;;;;;;5032840;28;20330;-71
2022/08/16 13:55:54;;;;;;;;;;;29.70;52.60;;;;;;5032615;28;20286;-72
2022/08/16 13:58:20;;;;;;;;;;;29.90;52.30;;;;;;5032625;28;19929;-71
2022/08/16 14:00:46;;;;;;;;;;;30.10;52.80;;;;;;5032479;28;19917;-71
2022/08/16 14:03:13;;;;;;;;;;;30.10;50.90;;;;;;5032812;28;19913;-71
2022/08/16 14:05:39;;;;;;;;;;;30.00;53.00;;;;;;5032351;28;19910;-71
2022/08/16 14:08:05;;;;;;;;;;;30.30;51.30;;;;;;5032805;28;19921;-72
2022/08/16 14:10:31;;;;;;;;;;;29.90;52.10;;;;;;5032549;28;19917;-70
2022/08/16 14:12:57;;;;;;;;;;;29.70;52.00;;;;;;5036142;28;19935;-71
2022/08/16 14:15:24;;;;;;;;;;;29.20;52.40;;;;;;5036518;28;19913;-71
2022/08/16 14:17:50;;;;;;;;;;;29.20;52.00;;;;;;5036234;28;19910;-71
2022/08/16 14:20:16;;;;;;;;;;;29.50;52.70;;;;;;5036460;28;20337;-71